Main page
METAR-TAF:

METAR-TAF

Airports :

Odessa International Airport

Odessa, Ukraine

latitude: 46-26N, longitude: 030-46E, elevation: 42 m

Current weather observation

The report was made 11 minutes ago, at 16:30 UTC
Calm wind
Temperature 5°C
Humidity 70%
Pressure 1033 hPa
Visibility 10 km or more
no clouds below 1500 m and no cumulonimbus

METAR: UKOO 251630Z 00000MPS CAVOK 05/M00 Q1033 R16/090095 NOSIG

Time: 19:41 (16:41 UTC)

Forecast

The report was made 5 hours and 36 minutes ago, at 11:05 UTC
Forecast valid from 25 at 12 UTC to 26 at 12 UTC
Wind 6 kt from the Northeast
Visibility 10 km or more
Scattered clouds at a height of 2500 ft
Becoming
from 25 at 18 UTC to 25 at 19 UTC
Wind 6 kt from the East
Visibility: 2500 m
mist
Becoming
from 26 at 06 UTC to 26 at 07 UTC
Wind 12 kt from the Southeast with gusts up to 23 kt
Visibility: 6000 m

TAF: UKOO 251105Z 2512/2612 04003MPS 9999 SCT025 TX11/2611Z TN03/2603Z BECMG 2518/2519 10003MPS 2500 BR BECMG 2606/2607 13006G12MPS 6000 NSW

Weather observations and forecasts of more than 4000 airports (METAR and TAF reports).

The available stations are represented by yellow and red dots on the map.

Hover mouse over dot to see the name of the station.

Then click to see weather observations and forecasts.

To change the map : click on the green buttons with a black cross to zoom in, on the green button with a dash to zoom out, or on the green arrows for adjacent maps.


METAR-TAF: